createdAt,value
2022-07-29T00:04:17.085Z,1.45
2022-07-29T00:09:21.246Z,0.97
2022-07-29T00:14:23.781Z,1.30
2022-07-29T00:19:26.366Z,1.40
2022-07-29T00:24:30.753Z,1.10
2022-07-29T00:29:34.718Z,1.20
2022-07-29T00:35:03.626Z,1.17
2022-07-29T00:40:09.435Z,1.40
2022-07-29T00:45:12.804Z,1.20
2022-07-29T00:50:15.905Z,1.03
2022-07-29T00:55:19.873Z,1.23
2022-07-29T01:00:25.541Z,1.30
2022-07-29T01:05:49.900Z,1.17
2022-07-29T01:10:55.111Z,1.33
2022-07-29T01:16:03.747Z,1.40
2022-07-29T01:21:29.510Z,1.25
2022-07-29T01:26:47.743Z,1.40
2022-07-29T01:32:00.640Z,1.27
2022-07-29T01:37:10.272Z,1.15
2022-07-29T01:42:17.620Z,1.45
2022-07-29T01:47:25.334Z,1.42
2022-07-29T01:52:33.444Z,1.52
2022-07-29T01:57:38.273Z,1.40
2022-07-29T02:02:44.560Z,1.08
2022-07-29T02:07:49.997Z,1.88
2022-07-29T02:12:52.570Z,1.38
2022-07-29T02:18:00.393Z,1.30
2022-07-29T02:23:04.238Z,1.45
2022-07-29T02:28:08.103Z,1.30
2022-07-29T02:33:16.157Z,1.35
2022-07-29T02:38:37.313Z,1.40
2022-07-29T02:43:42.505Z,1.58
2022-07-29T02:48:57.719Z,1.42
2022-07-29T02:54:07.775Z,1.13
2022-07-29T02:59:15.782Z,1.05
2022-07-29T03:04:21.378Z,1.70
2022-07-29T03:09:26.118Z,1.40
2022-07-29T03:14:29.342Z,1.40
2022-07-29T03:19:33.818Z,1.27
2022-07-29T03:24:37.748Z,1.30
2022-07-29T03:29:40.334Z,1.50
2022-07-29T03:34:47.711Z,1.58
2022-07-29T03:39:52.936Z,1.50
2022-07-29T03:44:57.662Z,1.90
2022-07-29T03:50:06.945Z,1.30
2022-07-29T03:55:14.125Z,1.52
2022-07-29T04:00:17.568Z,1.67
2022-07-29T04:05:21.562Z,1.60
2022-07-29T04:10:26.349Z,1.90
2022-07-29T04:15:34.386Z,1.80
2022-07-29T04:20:38.317Z,1.52
2022-07-29T04:25:41.583Z,1.50
2022-07-29T04:30:44.136Z,1.60
2022-07-29T04:35:50.466Z,1.60
2022-07-29T04:40:55.119Z,1.90
2022-07-29T04:45:58.889Z,1.80
2022-07-29T04:51:02.728Z,1.58
2022-07-29T04:56:05.741Z,1.88
2022-07-29T05:01:08.276Z,1.60
2022-07-29T05:06:12.208Z,2.13
2022-07-29T05:11:19.373Z,1.85
2022-07-29T05:16:24.010Z,1.50
2022-07-29T05:21:27.907Z,2.03
2022-07-29T05:26:30.509Z,2.22
2022-07-29T05:31:34.438Z,1.80
2022-07-29T05:36:38.235Z,1.33
2022-07-29T05:41:41.157Z,1.70
2022-07-29T05:46:43.698Z,1.63
2022-07-29T05:51:48.762Z,1.60
2022-07-29T05:56:51.287Z,1.70
2022-07-29T06:01:53.834Z,2.10
2022-07-29T06:06:57.714Z,1.70
2022-07-29T06:12:00.251Z,1.63
2022-07-29T06:17:02.851Z,1.65
2022-07-29T06:22:06.784Z,1.80
2022-07-29T06:27:09.624Z,1.92
2022-07-29T06:32:12.208Z,1.90
2022-07-29T06:37:16.144Z,1.88
2022-07-29T06:42:18.682Z,1.83
2022-07-29T06:47:21.115Z,1.70
2022-07-29T06:52:26.623Z,1.70
2022-07-29T06:57:29.585Z,1.80
2022-07-29T07:02:32.201Z,2.45
2022-07-29T07:07:36.345Z,1.98
2022-07-29T07:12:39.096Z,2.20
2022-07-29T07:17:41.628Z,2.03
2022-07-29T07:22:45.896Z,2.33
2022-07-29T07:27:48.796Z,2.33
2022-07-29T07:32:51.428Z,3.65
2022-07-29T07:37:55.928Z,3.10
2022-07-29T07:42:58.460Z,2.90
2022-07-29T07:48:01.189Z,4.07
2022-07-29T07:53:05.084Z,3.30
2022-07-29T08:03:17.162Z,3.05
2022-07-29T08:08:21.195Z,3.20
2022-07-29T08:18:28.413Z,3.23
2022-07-29T08:23:47.115Z,3.47
2022-07-29T08:28:52.054Z,3.42
2022-07-29T08:33:54.810Z,3.10
2022-07-29T08:38:58.779Z,3.10
2022-07-29T08:44:01.308Z,3.47
2022-07-29T08:49:04.161Z,3.90
2022-07-29T08:54:09.855Z,4.07
2022-07-29T08:59:13.259Z,3.55
2022-07-29T09:04:19.106Z,3.63
2022-07-29T09:09:23.700Z,4.28
2022-07-29T09:14:26.223Z,3.90
2022-07-29T09:19:32.343Z,4.95
2022-07-29T09:24:43.872Z,4.35
2022-07-29T09:29:48.706Z,5.57
2022-07-29T09:34:52.858Z,5.05
2022-07-29T09:39:59.500Z,7.30
2022-07-29T09:45:02.089Z,7.40
2022-07-29T09:50:04.945Z,7.70
2022-07-29T09:55:10.248Z,11.10
2022-07-29T10:00:20.174Z,11.20
2022-07-29T10:05:24.835Z,10.38
2022-07-29T10:10:30.559Z,8.80
2022-07-29T10:15:38.194Z,8.07
2022-07-29T10:20:41.803Z,7.30
2022-07-29T10:25:47.379Z,5.53
2022-07-29T10:30:53.487Z,4.20
2022-07-29T10:36:07.010Z,5.18
2022-07-29T10:41:32.424Z,3.90
2022-07-29T10:46:46.949Z,3.80
2022-07-29T10:51:58.560Z,3.40
2022-07-29T10:57:16.241Z,3.47
2022-07-29T11:02:45.072Z,3.08
2022-07-29T11:08:33.819Z,3.17
2022-07-29T11:13:55.984Z,2.95
2022-07-29T11:19:30.061Z,2.67
2022-07-29T11:24:35.146Z,2.90
2022-07-29T11:29:41.385Z,2.25
2022-07-29T11:34:46.017Z,2.40
2022-07-29T11:40:09.914Z,2.47
2022-07-29T11:45:43.266Z,2.28
2022-07-29T11:50:44.423Z,2.70
2022-07-29T11:55:51.663Z,2.72
2022-07-29T12:00:56.418Z,2.67
2022-07-29T12:05:59.142Z,2.58
2022-07-29T12:11:03.266Z,2.35
2022-07-29T12:21:12.431Z,2.78
2022-07-29T12:26:25.301Z,2.92
2022-07-29T12:36:48.020Z,3.78
2022-07-29T12:41:50.629Z,3.63
2022-07-29T12:47:04.927Z,3.60
2022-07-29T12:52:25.385Z,3.42
2022-07-29T12:57:29.236Z,3.63
2022-07-29T13:02:33.125Z,3.40
2022-07-29T13:07:53.999Z,2.92
2022-07-29T13:13:06.641Z,3.17
2022-07-29T13:18:31.998Z,3.40
2022-07-29T13:23:38.337Z,2.95
2022-07-29T13:28:44.067Z,3.58
2022-07-29T13:33:48.799Z,3.80
2022-07-29T13:38:51.425Z,3.03
2022-07-29T13:43:54.319Z,2.80
2022-07-29T13:48:58.240Z,3.83
2022-07-29T13:54:00.853Z,4.03
2022-07-29T13:59:03.342Z,3.50
2022-07-29T14:04:07.233Z,3.57
2022-07-29T14:09:09.960Z,3.78
2022-07-29T14:14:12.439Z,2.97
2022-07-29T14:19:16.264Z,2.80
2022-07-29T14:24:23.102Z,2.72
2022-07-29T14:29:37.497Z,4.97
2022-07-29T14:34:42.388Z,3.55
2022-07-29T14:39:50.905Z,4.75
2022-07-29T14:44:53.463Z,2.80
2022-07-29T14:49:57.325Z,2.60
2022-07-29T14:54:59.858Z,3.10
2022-07-29T15:00:02.709Z,3.10
2022-07-29T15:05:08.035Z,2.50
2022-07-29T15:10:10.984Z,3.40
2022-07-29T15:15:17.215Z,2.83
2022-07-29T15:20:22.148Z,2.87
2022-07-29T15:25:24.817Z,2.85
2022-07-29T15:30:33.376Z,2.90
2022-07-29T15:35:40.285Z,3.10
2022-07-29T15:40:44.494Z,3.20
2022-07-29T15:46:07.212Z,4.22
2022-07-29T15:51:11.091Z,3.10
2022-07-29T15:56:13.612Z,3.70
2022-07-29T16:01:16.323Z,3.95
2022-07-29T16:06:20.278Z,3.42
2022-07-29T16:11:22.842Z,3.30
2022-07-29T16:16:25.385Z,3.20
2022-07-29T16:21:29.474Z,3.33
2022-07-29T16:26:31.985Z,3.60
2022-07-29T16:31:34.543Z,3.28
2022-07-29T16:36:38.462Z,3.23
2022-07-29T16:41:41.029Z,3.55
2022-07-29T16:46:45.066Z,3.13
2022-07-29T16:51:48.895Z,3.20
2022-07-29T16:56:51.913Z,3.35
2022-07-29T17:01:54.437Z,3.05
2022-07-29T17:06:59.971Z,3.27
2022-07-29T17:12:03.592Z,2.80
2022-07-29T17:17:13.823Z,2.97
2022-07-29T17:22:20.634Z,3.10
2022-07-29T17:27:23.151Z,3.00
2022-07-29T17:32:25.822Z,2.83
2022-07-29T17:37:29.759Z,2.90
2022-07-29T17:42:32.239Z,2.90
2022-07-29T17:47:34.816Z,2.30
2022-07-29T17:52:39.309Z,2.50
2022-07-29T17:57:41.886Z,2.45
2022-07-29T18:02:44.421Z,3.27
2022-07-29T18:07:48.314Z,2.60
2022-07-29T18:12:50.843Z,2.13
2022-07-29T18:17:57.811Z,1.98
2022-07-29T18:23:02.503Z,2.28
2022-07-29T18:28:06.452Z,1.60
2022-07-29T18:33:21.668Z,3.17
2022-07-29T18:38:26.166Z,1.80
2022-07-29T18:43:28.691Z,2.30
2022-07-29T18:48:32.730Z,1.98
2022-07-29T18:53:36.911Z,1.70
2022-07-29T18:58:39.598Z,1.70
2022-07-29T19:03:42.071Z,2.00
2022-07-29T19:08:45.897Z,1.92
2022-07-29T19:13:48.419Z,1.90
2022-07-29T19:18:50.879Z,2.00
2022-07-29T19:24:01.759Z,2.10
2022-07-29T19:29:10.147Z,1.80
2022-07-29T19:34:13.119Z,2.03
2022-07-29T19:39:16.962Z,2.03
2022-07-29T19:44:19.538Z,2.00
2022-07-29T19:49:22.079Z,1.80
2022-07-29T19:54:26.841Z,1.80
2022-07-29T19:59:29.615Z,3.10
2022-07-29T20:04:32.228Z,3.97
2022-07-29T20:09:36.911Z,3.28
2022-07-29T20:19:42.697Z,2.63
2022-07-29T20:24:46.813Z,2.30
2022-07-29T20:29:49.339Z,2.92
2022-07-29T20:34:51.836Z,2.40
2022-07-29T20:39:55.898Z,2.88
2022-07-29T20:44:58.732Z,2.22
2022-07-29T20:50:01.212Z,2.57
2022-07-29T20:55:05.808Z,2.20
2022-07-29T21:00:09.802Z,2.40
2022-07-29T21:05:12.324Z,2.00
2022-07-29T21:10:18.254Z,2.40
2022-07-29T21:15:21.774Z,2.78
2022-07-29T21:20:24.278Z,2.67
2022-07-29T21:25:28.213Z,2.70
2022-07-29T21:30:30.845Z,2.60
2022-07-29T21:36:06.646Z,2.75
2022-07-29T21:40:58.158Z,2.83
2022-07-29T21:46:01.918Z,2.58
2022-07-29T21:51:06.007Z,3.10
2022-07-29T22:01:17.662Z,2.88
2022-07-29T22:06:20.164Z,2.38
2022-07-29T22:11:23.967Z,2.45
2022-07-29T22:16:26.557Z,2.70
2022-07-29T22:21:29.138Z,2.60
2022-07-29T22:26:33.321Z,3.10
2022-07-29T22:31:35.784Z,3.30
2022-07-29T22:36:38.331Z,3.33
2022-07-29T22:41:42.224Z,3.35
2022-07-29T22:46:44.825Z,4.20
2022-07-29T22:51:47.426Z,3.63
2022-07-29T22:56:51.225Z,3.50
2022-07-29T23:01:53.710Z,4.18
2022-07-29T23:06:56.232Z,4.50
2022-07-29T23:12:00.293Z,4.15
2022-07-29T23:22:06.776Z,4.70
2022-07-29T23:27:10.561Z,4.50
2022-07-29T23:32:13.064Z,4.15
2022-07-29T23:37:15.660Z,4.22
2022-07-29T23:42:19.550Z,4.28
2022-07-29T23:47:22.034Z,4.50
2022-07-29T23:52:27.677Z,4.18
2022-07-29T23:57:32.957Z,4.38
